Etusivu
METAR-TAF:

METAR-TAF

Lentoasemat :

Kristiansandin lentoasema

Kristiansand, Norja

Leveyspiiri: 58-12N, Pituuspiiri: 008-05E, korkeus merenpinnasta: 1 m

Tämänhetkinen sää

Tämä raportti tehtiin 32 minuuttia sitten, kello 09.20 UTC
Tuuli 2 kn pohjoisesta/koillisesta
Lämpötila 3°C
Kosteus 100%
Ilmanpaine 1011 hPa
Näkyvyys 10 km tai enemmän
Muutamia pilviä 100 ft:n korkeudessa
Hajonneita pilviä 2900 ft:n korkeudessa
sumua näköpiirissä

METAR: ENCN 170920Z 02002KT 9999 VCFG FEW001 BKN029 03/03 Q1011

Aika: 10:52 (09:52 UTC)

Sääennuste

Tämä raportti tehtiin 1 tunti ja 52 minuuttia sitten, kello 08.00 UTC
Ennuste voimassa 17. päivästä klo 09 UTC - 17. päivään klo 18 UTC
Tuuli 3 kn eri suunnista
Näkyvyys 10 km tai enemmän
Hajonneita pilviä 3000 ft:n korkeudessa
Todennäköisyys 30%
17. päivästä klo 09 UTC - 17. päivään klo 18 UTC
Näkyvyys: 0500 m
100 ft:n korkeudessa
sumua

TAF: ENCN 170800Z 1709/1718 VRB03KT 9999 BKN030 PROB30 1709/1718 0500 FG VV001

Säähavainnot ja -ennusteet yli 4000 lentoasemalta (METAR- ja TAF-raportit).

Käytössä olevat sääasemat on merkitty karttaan keltaisilla ja punaisilla pisteillä.

Aseta hiiri pisteen päälle nähdäksesi sääaseman nimen.

Klikkaa sitten nähdäksesi säähavainnot ja -ennusteet.

Kartan vaihtaminen: klikkaa mustalla rastilla varustettuja vihreitä pisteitä, niin voit zoomata sisään; viivalla varustettua vihreää pistettä, niin voit zoomata ulos tai vihreitä nuolia, niin pääset viereisille kartoille.


METAR-TAF: